sensor_id;sensor_type;location;lat;lon;timestamp;temperature;humidity
49793;DHT22;35690;37.536;-122.304;2022-08-05T00:03:06;32.20;39.00
49793;DHT22;35690;37.536;-122.304;2022-08-05T00:05:38;32.20;39.00
49793;DHT22;35690;37.536;-122.304;2022-08-05T00:08:13;32.10;39.30
49793;DHT22;35690;37.536;-122.304;2022-08-05T00:10:49;32.10;39.50
49793;DHT22;35690;37.536;-122.304;2022-08-05T00:13:30;31.90;39.60
49793;DHT22;35690;37.536;-122.304;2022-08-05T00:16:20;31.80;39.80
49793;DHT22;35690;37.536;-122.304;2022-08-05T00:19:21;31.70;39.80
49793;DHT22;35690;37.536;-122.304;2022-08-05T00:21:56;31.50;40.00
49793;DHT22;35690;37.536;-122.304;2022-08-05T00:24:43;31.50;40.10
49793;DHT22;35690;37.536;-122.304;2022-08-05T00:27:42;31.50;40.20
49793;DHT22;35690;37.536;-122.304;2022-08-05T00:30:14;31.60;40.30
49793;DHT22;35690;37.536;-122.304;2022-08-05T00:32:41;31.50;40.30
49793;DHT22;35690;37.536;-122.304;2022-08-05T00:38:11;31.30;40.60
49793;DHT22;35690;37.536;-122.304;2022-08-05T00:40:59;31.10;40.70
49793;DHT22;35690;37.536;-122.304;2022-08-05T00:43:25;31.00;40.80
49793;DHT22;35690;37.536;-122.304;2022-08-05T00:45:55;31.10;40.90
49793;DHT22;35690;37.536;-122.304;2022-08-05T00:48:24;31.10;40.90
49793;DHT22;35690;37.536;-122.304;2022-08-05T00:50:59;30.90;40.80
49793;DHT22;35690;37.536;-122.304;2022-08-05T00:53:31;30.90;40.80
49793;DHT22;35690;37.536;-122.304;2022-08-05T00:56:00;30.80;41.00
49793;DHT22;35690;37.536;-122.304;2022-08-05T00:58:32;30.70;41.10
49793;DHT22;35690;37.536;-122.304;2022-08-05T01:01:09;30.60;41.00
49793;DHT22;35690;37.536;-122.304;2022-08-05T01:03:48;30.50;41.00
49793;DHT22;35690;37.536;-122.304;2022-08-05T01:06:15;30.40;41.10
49793;DHT22;35690;37.536;-122.304;2022-08-05T01:08:50;30.40;41.00
49793;DHT22;35690;37.536;-122.304;2022-08-05T01:11:43;30.40;41.20
49793;DHT22;35690;37.536;-122.304;2022-08-05T01:14:39;30.30;41.30
49793;DHT22;35690;37.536;-122.304;2022-08-05T01:23:50;30.10;41.70
49793;DHT22;35690;37.536;-122.304;2022-08-05T01:29:40;30.00;41.70
49793;DHT22;35690;37.536;-122.304;2022-08-05T01:32:19;30.00;41.80
49793;DHT22;35690;37.536;-122.304;2022-08-05T01:35:16;30.00;41.80
49793;DHT22;35690;37.536;-122.304;2022-08-05T01:37:59;30.00;41.90
49793;DHT22;35690;37.536;-122.304;2022-08-05T01:40:33;29.90;41.90
49793;DHT22;35690;37.536;-122.304;2022-08-05T01:43:07;29.70;41.80
49793;DHT22;35690;37.536;-122.304;2022-08-05T01:45:40;29.70;41.70
49793;DHT22;35690;37.536;-122.304;2022-08-05T01:48:14;29.70;41.40
49793;DHT22;35690;37.536;-122.304;2022-08-05T01:50:41;29.80;41.50
49793;DHT22;35690;37.536;-122.304;2022-08-05T01:53:19;29.80;41.40
49793;DHT22;35690;37.536;-122.304;2022-08-05T01:55:49;29.80;41.50
49793;DHT22;35690;37.536;-122.304;2022-08-05T01:58:18;29.80;41.50
49793;DHT22;35690;37.536;-122.304;2022-08-05T02:00:49;29.70;41.60
49793;DHT22;35690;37.536;-122.304;2022-08-05T02:03:43;29.60;41.70
49793;DHT22;35690;37.536;-122.304;2022-08-05T02:06:11;29.60;41.80
49793;DHT22;35690;37.536;-122.304;2022-08-05T02:08:38;29.50;41.50
49793;DHT22;35690;37.536;-122.304;2022-08-05T02:11:11;29.40;42.00
49793;DHT22;35690;37.536;-122.304;2022-08-05T02:13:50;29.30;41.70
49793;DHT22;35690;37.536;-122.304;2022-08-05T02:16:33;29.30;42.00
49793;DHT22;35690;37.536;-122.304;2022-08-05T02:19:06;29.40;41.80
49793;DHT22;35690;37.536;-122.304;2022-08-05T02:21:42;29.30;42.30
49793;DHT22;35690;37.536;-122.304;2022-08-05T02:24:13;29.30;41.70
49793;DHT22;35690;37.536;-122.304;2022-08-05T02:26:50;29.30;41.90
49793;DHT22;35690;37.536;-122.304;2022-08-05T02:29:22;29.10;41.80
49793;DHT22;35690;37.536;-122.304;2022-08-05T02:31:50;29.10;41.90
49793;DHT22;35690;37.536;-122.304;2022-08-05T02:34:19;29.10;42.00
49793;DHT22;35690;37.536;-122.304;2022-08-05T02:36:54;29.00;42.10
49793;DHT22;35690;37.536;-122.304;2022-08-05T02:39:25;29.00;42.20
49793;DHT22;35690;37.536;-122.304;2022-08-05T02:41:54;28.90;42.10
49793;DHT22;35690;37.536;-122.304;2022-08-05T02:44:23;28.90;42.00
49793;DHT22;35690;37.536;-122.304;2022-08-05T02:46:55;28.90;42.00
49793;DHT22;35690;37.536;-122.304;2022-08-05T02:49:32;28.80;41.80
49793;DHT22;35690;37.536;-122.304;2022-08-05T02:52:10;28.80;41.00
49793;DHT22;35690;37.536;-122.304;2022-08-05T02:54:39;28.70;40.80
49793;DHT22;35690;37.536;-122.304;2022-08-05T02:57:12;28.70;41.70
49793;DHT22;35690;37.536;-122.304;2022-08-05T02:59:44;28.70;41.90
49793;DHT22;35690;37.536;-122.304;2022-08-05T03:02:18;28.60;41.90
49793;DHT22;35690;37.536;-122.304;2022-08-05T03:04:46;28.50;41.80
49793;DHT22;35690;37.536;-122.304;2022-08-05T03:07:17;28.50;41.60
49793;DHT22;35690;37.536;-122.304;2022-08-05T03:09:44;28.40;41.90
49793;DHT22;35690;37.536;-122.304;2022-08-05T03:12:32;28.40;42.00
49793;DHT22;35690;37.536;-122.304;2022-08-05T03:14:59;28.30;42.10
49793;DHT22;35690;37.536;-122.304;2022-08-05T03:17:28;28.30;41.90
49793;DHT22;35690;37.536;-122.304;2022-08-05T03:19:54;28.20;42.20
49793;DHT22;35690;37.536;-122.304;2022-08-05T03:22:24;28.10;42.30
49793;DHT22;35690;37.536;-122.304;2022-08-05T03:24:51;28.00;42.40
49793;DHT22;35690;37.536;-122.304;2022-08-05T03:27:19;28.00;42.40
49793;DHT22;35690;37.536;-122.304;2022-08-05T03:29:49;28.00;42.30
49793;DHT22;35690;37.536;-122.304;2022-08-05T03:32:16;27.90;42.60
49793;DHT22;35690;37.536;-122.304;2022-08-05T03:34:45;27.90;42.50
49793;DHT22;35690;37.536;-122.304;2022-08-05T03:37:12;27.80;42.50
49793;DHT22;35690;37.536;-122.304;2022-08-05T03:39:50;27.70;42.70
49793;DHT22;35690;37.536;-122.304;2022-08-05T03:42:19;27.60;42.80
49793;DHT22;35690;37.536;-122.304;2022-08-05T03:44:48;27.60;42.90
49793;DHT22;35690;37.536;-122.304;2022-08-05T03:47:15;27.50;42.80
49793;DHT22;35690;37.536;-122.304;2022-08-05T03:49:42;27.50;43.10
49793;DHT22;35690;37.536;-122.304;2022-08-05T03:52:12;27.50;43.10
49793;DHT22;35690;37.536;-122.304;2022-08-05T03:57:31;27.30;43.40
49793;DHT22;35690;37.536;-122.304;2022-08-05T04:00:10;27.30;43.40
49793;DHT22;35690;37.536;-122.304;2022-08-05T04:02:45;27.20;43.50
49793;DHT22;35690;37.536;-122.304;2022-08-05T04:05:14;27.20;43.80
49793;DHT22;35690;37.536;-122.304;2022-08-05T04:07:42;27.10;43.70
49793;DHT22;35690;37.536;-122.304;2022-08-05T04:10:12;27.00;43.90
49793;DHT22;35690;37.536;-122.304;2022-08-05T04:12:46;27.00;44.10
49793;DHT22;35690;37.536;-122.304;2022-08-05T04:15:12;27.00;44.00
49793;DHT22;35690;37.536;-122.304;2022-08-05T04:17:43;26.90;44.20
49793;DHT22;35690;37.536;-122.304;2022-08-05T04:20:18;26.80;44.20
49793;DHT22;35690;37.536;-122.304;2022-08-05T04:22:44;26.80;44.10
49793;DHT22;35690;37.536;-122.304;2022-08-05T04:25:12;26.70;44.20
49793;DHT22;35690;37.536;-122.304;2022-08-05T04:27:41;26.80;44.20
49793;DHT22;35690;37.536;-122.304;2022-08-05T04:30:13;26.70;44.30
49793;DHT22;35690;37.536;-122.304;2022-08-05T04:32:48;26.80;44.10
49793;DHT22;35690;37.536;-122.304;2022-08-05T04:35:15;26.70;44.10
49793;DHT22;35690;37.536;-122.304;2022-08-05T04:37:42;26.60;44.20
49793;DHT22;35690;37.536;-122.304;2022-08-05T04:40:09;26.50;44.50
49793;DHT22;35690;37.536;-122.304;2022-08-05T04:42:42;26.60;44.30
49793;DHT22;35690;37.536;-122.304;2022-08-05T04:45:12;26.50;44.50
49793;DHT22;35690;37.536;-122.304;2022-08-05T04:47:38;26.50;44.70
49793;DHT22;35690;37.536;-122.304;2022-08-05T04:50:08;26.40;44.80
49793;DHT22;35690;37.536;-122.304;2022-08-05T04:52:34;26.20;44.80
49793;DHT22;35690;37.536;-122.304;2022-08-05T04:55:07;26.20;45.00
49793;DHT22;35690;37.536;-122.304;2022-08-05T04:57:34;26.10;45.30
49793;DHT22;35690;37.536;-122.304;2022-08-05T05:00:01;26.20;45.20
49793;DHT22;35690;37.536;-122.304;2022-08-05T05:02:27;26.20;45.00
49793;DHT22;35690;37.536;-122.304;2022-08-05T05:04:54;26.10;45.20
49793;DHT22;35690;37.536;-122.304;2022-08-05T05:07:21;26.00;45.10
49793;DHT22;35690;37.536;-122.304;2022-08-05T05:09:47;26.10;45.30
49793;DHT22;35690;37.536;-122.304;2022-08-05T05:12:17;26.00;45.40
49793;DHT22;35690;37.536;-122.304;2022-08-05T05:14:44;26.00;45.50
49793;DHT22;35690;37.536;-122.304;2022-08-05T05:17:13;26.00;45.50
49793;DHT22;35690;37.536;-122.304;2022-08-05T05:19:42;26.00;45.60
49793;DHT22;35690;37.536;-122.304;2022-08-05T05:22:15;25.90;45.50
49793;DHT22;35690;37.536;-122.304;2022-08-05T05:24:41;25.90;45.70
49793;DHT22;35690;37.536;-122.304;2022-08-05T05:27:08;25.80;45.80
49793;DHT22;35690;37.536;-122.304;2022-08-05T05:29:37;25.90;45.60
49793;DHT22;35690;37.536;-122.304;2022-08-05T05:32:03;25.70;45.70
49793;DHT22;35690;37.536;-122.304;2022-08-05T05:34:30;25.80;45.80
49793;DHT22;35690;37.536;-122.304;2022-08-05T05:36:56;25.70;45.90
49793;DHT22;35690;37.536;-122.304;2022-08-05T05:39:25;25.70;45.90
49793;DHT22;35690;37.536;-122.304;2022-08-05T05:41:55;25.80;45.90
49793;DHT22;35690;37.536;-122.304;2022-08-05T05:44:24;25.70;45.90
49793;DHT22;35690;37.536;-122.304;2022-08-05T05:46:51;25.70;46.00
49793;DHT22;35690;37.536;-122.304;2022-08-05T05:49:20;25.60;46.30
49793;DHT22;35690;37.536;-122.304;2022-08-05T05:51:46;25.70;46.30
49793;DHT22;35690;37.536;-122.304;2022-08-05T05:54:13;25.60;46.30
49793;DHT22;35690;37.536;-122.304;2022-08-05T05:56:39;25.60;46.10
49793;DHT22;35690;37.536;-122.304;2022-08-05T05:59:09;25.50;46.20
49793;DHT22;35690;37.536;-122.304;2022-08-05T06:01:38;25.60;46.40
49793;DHT22;35690;37.536;-122.304;2022-08-05T06:04:07;25.60;46.30
49793;DHT22;35690;37.536;-122.304;2022-08-05T06:06:34;25.50;46.50
49793;DHT22;35690;37.536;-122.304;2022-08-05T06:09:03;25.50;46.50
49793;DHT22;35690;37.536;-122.304;2022-08-05T06:11:30;25.40;46.80
49793;DHT22;35690;37.536;-122.304;2022-08-05T06:13:57;25.30;46.80
49793;DHT22;35690;37.536;-122.304;2022-08-05T06:16:24;25.30;46.70
49793;DHT22;35690;37.536;-122.304;2022-08-05T06:18:50;25.40;46.80
49793;DHT22;35690;37.536;-122.304;2022-08-05T06:21:20;25.30;46.90
49793;DHT22;35690;37.536;-122.304;2022-08-05T06:23:46;25.30;47.00
49793;DHT22;35690;37.536;-122.304;2022-08-05T06:26:13;25.30;46.80
49793;DHT22;35690;37.536;-122.304;2022-08-05T06:28:39;25.30;47.10
49793;DHT22;35690;37.536;-122.304;2022-08-05T06:31:06;25.30;47.10
49793;DHT22;35690;37.536;-122.304;2022-08-05T06:33:32;25.30;47.00
49793;DHT22;35690;37.536;-122.304;2022-08-05T06:35:58;25.20;47.70
49793;DHT22;35690;37.536;-122.304;2022-08-05T06:38:25;25.20;47.10
49793;DHT22;35690;37.536;-122.304;2022-08-05T06:40:51;25.30;47.20
49793;DHT22;35690;37.536;-122.304;2022-08-05T06:43:17;25.20;47.30
49793;DHT22;35690;37.536;-122.304;2022-08-05T06:45:44;25.20;47.30
49793;DHT22;35690;37.536;-122.304;2022-08-05T06:48:11;25.10;47.20
49793;DHT22;35690;37.536;-122.304;2022-08-05T06:50:37;25.10;47.40
49793;DHT22;35690;37.536;-122.304;2022-08-05T06:53:03;25.10;47.50
49793;DHT22;35690;37.536;-122.304;2022-08-05T06:55:30;25.00;47.60
49793;DHT22;35690;37.536;-122.304;2022-08-05T06:57:56;25.00;47.80
49793;DHT22;35690;37.536;-122.304;2022-08-05T07:00:23;25.10;47.60
49793;DHT22;35690;37.536;-122.304;2022-08-05T07:02:49;25.10;47.60
49793;DHT22;35690;37.536;-122.304;2022-08-05T07:05:16;25.00;47.60
49793;DHT22;35690;37.536;-122.304;2022-08-05T07:07:45;25.00;47.70
49793;DHT22;35690;37.536;-122.304;2022-08-05T07:10:14;25.00;47.70
49793;DHT22;35690;37.536;-122.304;2022-08-05T07:12:40;25.00;47.60
49793;DHT22;35690;37.536;-122.304;2022-08-05T07:15:25;24.90;47.90
49793;DHT22;35690;37.536;-122.304;2022-08-05T07:18:10;25.00;47.90
49793;DHT22;35690;37.536;-122.304;2022-08-05T07:20:36;24.90;48.00
49793;DHT22;35690;37.536;-122.304;2022-08-05T07:23:03;25.00;48.00
49793;DHT22;35690;37.536;-122.304;2022-08-05T07:25:29;24.90;48.00
49793;DHT22;35690;37.536;-122.304;2022-08-05T07:27:56;24.90;48.10
49793;DHT22;35690;37.536;-122.304;2022-08-05T07:30:22;24.90;48.20
49793;DHT22;35690;37.536;-122.304;2022-08-05T07:32:49;24.80;48.30
49793;DHT22;35690;37.536;-122.304;2022-08-05T07:35:15;24.70;48.50
49793;DHT22;35690;37.536;-122.304;2022-08-05T07:37:42;24.80;48.30
49793;DHT22;35690;37.536;-122.304;2022-08-05T07:40:08;24.90;48.20
49793;DHT22;35690;37.536;-122.304;2022-08-05T07:42:35;24.80;48.20
49793;DHT22;35690;37.536;-122.304;2022-08-05T07:45:04;24.80;48.20
49793;DHT22;35690;37.536;-122.304;2022-08-05T07:47:31;24.70;48.30
49793;DHT22;35690;37.536;-122.304;2022-08-05T07:49:57;24.70;48.50
49793;DHT22;35690;37.536;-122.304;2022-08-05T07:52:23;24.70;48.60
49793;DHT22;35690;37.536;-122.304;2022-08-05T07:54:50;24.70;48.50
49793;DHT22;35690;37.536;-122.304;2022-08-05T07:57:17;24.60;48.50
49793;DHT22;35690;37.536;-122.304;2022-08-05T07:59:43;24.60;48.60
49793;DHT22;35690;37.536;-122.304;2022-08-05T08:02:10;24.60;48.60
49793;DHT22;35690;37.536;-122.304;2022-08-05T08:04:37;24.60;48.70
49793;DHT22;35690;37.536;-122.304;2022-08-05T08:07:04;24.70;48.60
49793;DHT22;35690;37.536;-122.304;2022-08-05T08:09:30;24.60;48.70
49793;DHT22;35690;37.536;-122.304;2022-08-05T08:11:56;24.50;48.80
49793;DHT22;35690;37.536;-122.304;2022-08-05T08:14:23;24.50;48.90
49793;DHT22;35690;37.536;-122.304;2022-08-05T08:16:49;24.40;49.10
49793;DHT22;35690;37.536;-122.304;2022-08-05T08:19:16;24.50;48.80
49793;DHT22;35690;37.536;-122.304;2022-08-05T08:21:42;24.40;49.10
49793;DHT22;35690;37.536;-122.304;2022-08-05T08:24:12;24.50;48.80
49793;DHT22;35690;37.536;-122.304;2022-08-05T08:26:40;24.50;48.90
49793;DHT22;35690;37.536;-122.304;2022-08-05T08:29:10;24.40;49.00
49793;DHT22;35690;37.536;-122.304;2022-08-05T08:31:44;24.40;49.10
49793;DHT22;35690;37.536;-122.304;2022-08-05T08:34:13;24.50;49.60
49793;DHT22;35690;37.536;-122.304;2022-08-05T08:36:42;24.30;49.20
49793;DHT22;35690;37.536;-122.304;2022-08-05T08:39:09;24.20;49.10
49793;DHT22;35690;37.536;-122.304;2022-08-05T08:41:40;24.30;49.10
49793;DHT22;35690;37.536;-122.304;2022-08-05T08:44:07;24.30;49.10
49793;DHT22;35690;37.536;-122.304;2022-08-05T08:46:35;24.30;49.20
49793;DHT22;35690;37.536;-122.304;2022-08-05T08:49:04;24.30;49.20
49793;DHT22;35690;37.536;-122.304;2022-08-05T08:51:33;24.20;49.30
49793;DHT22;35690;37.536;-122.304;2022-08-05T08:54:00;24.20;49.30
49793;DHT22;35690;37.536;-122.304;2022-08-05T08:56:26;24.20;49.50
49793;DHT22;35690;37.536;-122.304;2022-08-05T08:58:53;24.20;49.70
49793;DHT22;35690;37.536;-122.304;2022-08-05T09:01:19;24.10;49.70
49793;DHT22;35690;37.536;-122.304;2022-08-05T09:03:48;24.20;49.50
49793;DHT22;35690;37.536;-122.304;2022-08-05T09:06:18;24.10;49.50
49793;DHT22;35690;37.536;-122.304;2022-08-05T09:08:50;24.30;49.40
49793;DHT22;35690;37.536;-122.304;2022-08-05T09:11:17;24.20;49.20
49793;DHT22;35690;37.536;-122.304;2022-08-05T09:13:46;24.20;49.30
49793;DHT22;35690;37.536;-122.304;2022-08-05T09:16:13;24.10;49.40
49793;DHT22;35690;37.536;-122.304;2022-08-05T09:18:39;24.20;49.40
49793;DHT22;35690;37.536;-122.304;2022-08-05T09:21:09;24.20;49.40
49793;DHT22;35690;37.536;-122.304;2022-08-05T09:23:35;24.20;49.50
49793;DHT22;35690;37.536;-122.304;2022-08-05T09:26:07;24.20;49.60
49793;DHT22;35690;37.536;-122.304;2022-08-05T09:28:36;24.20;49.60
49793;DHT22;35690;37.536;-122.304;2022-08-05T09:31:12;24.10;49.30
49793;DHT22;35690;37.536;-122.304;2022-08-05T09:33:58;24.20;49.40
49793;DHT22;35690;37.536;-122.304;2022-08-05T09:36:45;24.20;49.40
49793;DHT22;35690;37.536;-122.304;2022-08-05T09:39:18;24.10;49.50
49793;DHT22;35690;37.536;-122.304;2022-08-05T09:42:05;24.10;49.60
49793;DHT22;35690;37.536;-122.304;2022-08-05T09:44:43;24.10;49.60
49793;DHT22;35690;37.536;-122.304;2022-08-05T09:47:14;24.10;49.70
49793;DHT22;35690;37.536;-122.304;2022-08-05T09:49:50;24.10;49.60
49793;DHT22;35690;37.536;-122.304;2022-08-05T09:52:31;24.10;49.60
49793;DHT22;35690;37.536;-122.304;2022-08-05T09:55:08;24.10;49.70
49793;DHT22;35690;37.536;-122.304;2022-08-05T09:57:39;24.00;49.70
49793;DHT22;35690;37.536;-122.304;2022-08-05T10:00:20;24.00;49.70
49793;DHT22;35690;37.536;-122.304;2022-08-05T10:02:51;24.00;50.30
49793;DHT22;35690;37.536;-122.304;2022-08-05T10:05:23;23.90;49.80
49793;DHT22;35690;37.536;-122.304;2022-08-05T10:07:51;24.00;49.90
49793;DHT22;35690;37.536;-122.304;2022-08-05T10:10:23;23.90;49.90
49793;DHT22;35690;37.536;-122.304;2022-08-05T10:12:57;23.90;50.00
49793;DHT22;35690;37.536;-122.304;2022-08-05T10:15:31;23.90;49.90
49793;DHT22;35690;37.536;-122.304;2022-08-05T10:18:14;24.00;49.80
49793;DHT22;35690;37.536;-122.304;2022-08-05T10:20:45;23.90;49.80
49793;DHT22;35690;37.536;-122.304;2022-08-05T10:23:23;23.90;49.80
49793;DHT22;35690;37.536;-122.304;2022-08-05T10:25:50;23.90;49.80
49793;DHT22;35690;37.536;-122.304;2022-08-05T10:28:17;23.90;49.80
49793;DHT22;35690;37.536;-122.304;2022-08-05T10:30:47;23.80;50.60
49793;DHT22;35690;37.536;-122.304;2022-08-05T10:33:17;23.80;49.90
49793;DHT22;35690;37.536;-122.304;2022-08-05T10:35:46;23.90;49.80
49793;DHT22;35690;37.536;-122.304;2022-08-05T10:38:13;23.80;50.00
49793;DHT22;35690;37.536;-122.304;2022-08-05T10:43:38;23.90;50.10
49793;DHT22;35690;37.536;-122.304;2022-08-05T10:46:10;23.80;50.30
49793;DHT22;35690;37.536;-122.304;2022-08-05T10:48:44;23.80;50.20
49793;DHT22;35690;37.536;-122.304;2022-08-05T10:51:17;23.80;50.10
49793;DHT22;35690;37.536;-122.304;2022-08-05T10:53:51;23.70;50.10
49793;DHT22;35690;37.536;-122.304;2022-08-05T10:56:23;23.80;50.10
49793;DHT22;35690;37.536;-122.304;2022-08-05T11:01:37;23.70;50.00
49793;DHT22;35690;37.536;-122.304;2022-08-05T11:04:18;23.70;50.20
49793;DHT22;35690;37.536;-122.304;2022-08-05T11:09:46;23.70;49.90
49793;DHT22;35690;37.536;-122.304;2022-08-05T11:17:39;23.70;50.30
49793;DHT22;35690;37.536;-122.304;2022-08-05T11:20:43;23.60;50.10
49793;DHT22;35690;37.536;-122.304;2022-08-05T11:26:07;23.70;50.20
49793;DHT22;35690;37.536;-122.304;2022-08-05T11:28:38;23.60;50.10
49793;DHT22;35690;37.536;-122.304;2022-08-05T11:33:39;23.60;50.20
49793;DHT22;35690;37.536;-122.304;2022-08-05T11:36:19;23.60;50.30
49793;DHT22;35690;37.536;-122.304;2022-08-05T11:41:20;23.60;50.20
49793;DHT22;35690;37.536;-122.304;2022-08-05T11:43:55;23.50;50.30
49793;DHT22;35690;37.536;-122.304;2022-08-05T11:48:53;23.60;50.30
49793;DHT22;35690;37.536;-122.304;2022-08-05T11:51:21;23.50;50.40
49793;DHT22;35690;37.536;-122.304;2022-08-05T11:53:50;23.50;50.50
49793;DHT22;35690;37.536;-122.304;2022-08-05T11:56:17;23.40;50.50
49793;DHT22;35690;37.536;-122.304;2022-08-05T11:58:44;23.50;50.30
49793;DHT22;35690;37.536;-122.304;2022-08-05T12:01:14;23.50;50.40
49793;DHT22;35690;37.536;-122.304;2022-08-05T12:03:52;23.50;50.50
49793;DHT22;35690;37.536;-122.304;2022-08-05T12:06:24;23.50;50.20
49793;DHT22;35690;37.536;-122.304;2022-08-05T12:08:56;23.60;50.30
49793;DHT22;35690;37.536;-122.304;2022-08-05T12:11:27;23.40;50.40
49793;DHT22;35690;37.536;-122.304;2022-08-05T12:13:56;23.40;50.50
49793;DHT22;35690;37.536;-122.304;2022-08-05T12:16:24;23.40;50.60
49793;DHT22;35690;37.536;-122.304;2022-08-05T12:18:52;23.40;50.50
49793;DHT22;35690;37.536;-122.304;2022-08-05T12:21:21;23.50;50.40
49793;DHT22;35690;37.536;-122.304;2022-08-05T12:24:20;23.40;50.50
49793;DHT22;35690;37.536;-122.304;2022-08-05T12:26:49;23.40;50.30
49793;DHT22;35690;37.536;-122.304;2022-08-05T12:29:18;23.30;50.50
49793;DHT22;35690;37.536;-122.304;2022-08-05T12:31:55;23.30;50.50
49793;DHT22;35690;37.536;-122.304;2022-08-05T12:34:35;23.40;50.40
49793;DHT22;35690;37.536;-122.304;2022-08-05T12:37:06;23.30;50.50
49793;DHT22;35690;37.536;-122.304;2022-08-05T12:39:39;23.40;50.50
49793;DHT22;35690;37.536;-122.304;2022-08-05T12:42:15;23.30;50.40
49793;DHT22;35690;37.536;-122.304;2022-08-05T12:44:46;23.20;50.50
49793;DHT22;35690;37.536;-122.304;2022-08-05T12:47:24;23.20;51.40
49793;DHT22;35690;37.536;-122.304;2022-08-05T12:49:50;23.30;50.50
49793;DHT22;35690;37.536;-122.304;2022-08-05T12:52:18;23.30;50.50
49793;DHT22;35690;37.536;-122.304;2022-08-05T12:54:47;23.30;50.50
49793;DHT22;35690;37.536;-122.304;2022-08-05T12:57:14;23.20;50.50
49793;DHT22;35690;37.536;-122.304;2022-08-05T12:59:52;23.30;50.40
49793;DHT22;35690;37.536;-122.304;2022-08-05T13:02:24;23.20;50.50
49793;DHT22;35690;37.536;-122.304;2022-08-05T13:04:53;23.30;50.60
49793;DHT22;35690;37.536;-122.304;2022-08-05T13:07:25;23.20;50.70
49793;DHT22;35690;37.536;-122.304;2022-08-05T13:09:54;23.20;50.70
49793;DHT22;35690;37.536;-122.304;2022-08-05T13:12:24;23.20;50.70
49793;DHT22;35690;37.536;-122.304;2022-08-05T13:14:58;23.30;50.60
49793;DHT22;35690;37.536;-122.304;2022-08-05T13:17:31;23.10;50.80
49793;DHT22;35690;37.536;-122.304;2022-08-05T13:20:03;23.10;50.90
49793;DHT22;35690;37.536;-122.304;2022-08-05T13:22:33;23.10;50.80
49793;DHT22;35690;37.536;-122.304;2022-08-05T13:25:01;23.20;50.90
49793;DHT22;35690;37.536;-122.304;2022-08-05T13:27:35;23.10;50.90
49793;DHT22;35690;37.536;-122.304;2022-08-05T13:30:03;23.10;51.00
49793;DHT22;35690;37.536;-122.304;2022-08-05T13:32:29;23.10;50.90
49793;DHT22;35690;37.536;-122.304;2022-08-05T13:34:56;23.10;50.80
49793;DHT22;35690;37.536;-122.304;2022-08-05T13:37:23;23.10;50.80
49793;DHT22;35690;37.536;-122.304;2022-08-05T13:39:50;23.00;50.90
49793;DHT22;35690;37.536;-122.304;2022-08-05T13:42:21;23.10;50.80
49793;DHT22;35690;37.536;-122.304;2022-08-05T13:44:52;23.20;50.60
49793;DHT22;35690;37.536;-122.304;2022-08-05T13:47:27;23.00;50.80
49793;DHT22;35690;37.536;-122.304;2022-08-05T13:49:53;23.10;50.70
49793;DHT22;35690;37.536;-122.304;2022-08-05T13:52:22;23.10;51.00
49793;DHT22;35690;37.536;-122.304;2022-08-05T13:54:54;23.20;50.70
49793;DHT22;35690;37.536;-122.304;2022-08-05T13:57:21;23.20;50.70
49793;DHT22;35690;37.536;-122.304;2022-08-05T13:59:50;23.20;50.70
49793;DHT22;35690;37.536;-122.304;2022-08-05T14:02:16;22.90;50.90
49793;DHT22;35690;37.536;-122.304;2022-08-05T14:04:47;23.10;50.70
49793;DHT22;35690;37.536;-122.304;2022-08-05T14:07:37;23.00;50.90
49793;DHT22;35690;37.536;-122.304;2022-08-05T14:10:13;23.00;50.80
49793;DHT22;35690;37.536;-122.304;2022-08-05T14:12:43;23.00;50.90
49793;DHT22;35690;37.536;-122.304;2022-08-05T14:15:14;23.00;50.90
49793;DHT22;35690;37.536;-122.304;2022-08-05T14:17:41;23.10;50.60
49793;DHT22;35690;37.536;-122.304;2022-08-05T14:20:08;23.10;50.70
49793;DHT22;35690;37.536;-122.304;2022-08-05T14:22:39;23.10;50.70
49793;DHT22;35690;37.536;-122.304;2022-08-05T14:25:06;23.20;50.60
49793;DHT22;35690;37.536;-122.304;2022-08-05T14:27:33;23.10;50.90
49793;DHT22;35690;37.536;-122.304;2022-08-05T14:30:02;23.10;51.00
49793;DHT22;35690;37.536;-122.304;2022-08-05T14:32:29;23.10;50.90
49793;DHT22;35690;37.536;-122.304;2022-08-05T14:34:56;23.10;50.90
49793;DHT22;35690;37.536;-122.304;2022-08-05T14:37:23;23.10;51.00
49793;DHT22;35690;37.536;-122.304;2022-08-05T14:39:49;23.10;50.90
49793;DHT22;35690;37.536;-122.304;2022-08-05T14:42:16;23.10;50.70
49793;DHT22;35690;37.536;-122.304;2022-08-05T14:44:42;23.00;50.90
49793;DHT22;35690;37.536;-122.304;2022-08-05T14:47:15;23.10;50.70
49793;DHT22;35690;37.536;-122.304;2022-08-05T14:49:42;23.20;50.60
49793;DHT22;35690;37.536;-122.304;2022-08-05T14:52:11;23.20;50.60
49793;DHT22;35690;37.536;-122.304;2022-08-05T14:54:44;23.10;50.60
49793;DHT22;35690;37.536;-122.304;2022-08-05T14:57:10;23.30;50.40
49793;DHT22;35690;37.536;-122.304;2022-08-05T14:59:36;23.10;50.40
49793;DHT22;35690;37.536;-122.304;2022-08-05T15:02:06;23.20;50.70
49793;DHT22;35690;37.536;-122.304;2022-08-05T15:04:32;23.10;51.10
49793;DHT22;35690;37.536;-122.304;2022-08-05T15:06:59;23.20;50.50
49793;DHT22;35690;37.536;-122.304;2022-08-05T15:09:25;23.20;50.50
49793;DHT22;35690;37.536;-122.304;2022-08-05T15:11:52;23.10;50.70
49793;DHT22;35690;37.536;-122.304;2022-08-05T15:14:18;23.20;50.50
49793;DHT22;35690;37.536;-122.304;2022-08-05T15:16:45;23.30;50.40
49793;DHT22;35690;37.536;-122.304;2022-08-05T15:19:11;23.20;50.50
49793;DHT22;35690;37.536;-122.304;2022-08-05T15:21:43;23.30;50.30
49793;DHT22;35690;37.536;-122.304;2022-08-05T15:24:15;23.30;50.50
49793;DHT22;35690;37.536;-122.304;2022-08-05T15:26:45;23.30;50.30
49793;DHT22;35690;37.536;-122.304;2022-08-05T15:29:11;23.30;50.50
49793;DHT22;35690;37.536;-122.304;2022-08-05T15:31:38;23.30;50.50
49793;DHT22;35690;37.536;-122.304;2022-08-05T15:34:04;23.30;50.60
49793;DHT22;35690;37.536;-122.304;2022-08-05T15:36:31;23.50;50.50
49793;DHT22;35690;37.536;-122.304;2022-08-05T15:39:00;23.30;50.40
49793;DHT22;35690;37.536;-122.304;2022-08-05T15:41:29;23.50;50.50
49793;DHT22;35690;37.536;-122.304;2022-08-05T15:43:56;23.60;50.20
49793;DHT22;35690;37.536;-122.304;2022-08-05T15:46:23;23.70;50.00
49793;DHT22;35690;37.536;-122.304;2022-08-05T15:48:58;23.80;49.90
49793;DHT22;35690;37.536;-122.304;2022-08-05T15:51:29;23.80;49.90